Needles, California
Current Conditions -  °F | °C
As of 3:56 PM on Wednesday 22 Oct 2014 (Local Time) from KEED Reporting Station
Clear Clear  
Wind Chill: 91°   Ceiling: Unl
Heat Index: 91°   Visibility: 10mi
Dew Point: 42°   Wind: 3mph
Humidity: 18%   Direction: 150°SSE
Pressure: 29.9"   Gusts: NA
Location:  34.84°N, 114.6°W
Report Text: KEED 222256Z AUTO 15003KT 10SM CLR 33/06 A2990 RMK AO2 SLP098 T03280056
Loading
Personal Weather Stations






























Interactive Weather Map
Tropical Storm Tracking
New forecast layout! Learn more

10-Day Weather Forecast

Advertisements
Track Severe Weather on mobile